Historyczne dane pomiarowe

Dodano dane terminowe – wersja testowa.

Dane z okresu 1951-2019

Wersja bazy: 1.34 [2019-03-16, lista zmian], aktualizacja planowana na 2019-04-15

Dane meteo z obszaru Polski uzyskane na podstawie danych udostępnionych przez Instytut Meteorologii i Gospodarki Wodnej – Państwowy Instytut Badawczy.

 

Wybierz Datę:    

       

TemperaturaWilgotnośćWiatrCiśnienieOpadyŚniegCzas trwania zjawisk
 Stacja t tx tn tng RH VA  wxwx mslp ppp RRR   cm mm wxwxwxwxwxwxwx
1961-08-14 14.0 19.2 6.5--- 2.7 1.0---- 0.0------------
1961-08-13 12.5 16.0 11.2--- 6.0 1.7---- 6.4------------
1961-08-12 16.5 22.5 13.8--- 7.3 1.0---- 30.7------------
1961-08-11 19.0 26.5 17.3--- 3.3 2.3---- 0.0------------
1961-08-10 25.2 30.4 17.4--- 2.3 1.0---- 0.0------------
1961-08-09 21.5 26.0 16.5--- 4.3 0.3---- 3.2------------
1961-08-08 20.5 23.1 15.1--- 6.0 1.0---- 0.0------------
1961-08-07 21.2 25.2 15.3--- 2.0 2.3---- 3.0------------
1961-08-06 24.0 30.3 14.6--- 0.7 4.3---- 0.0------------
1961-08-05 17.8 24.0 15.1--- 2.0 1.7---- 0.0------------
1961-08-04 15.9 20.5 7.3--- 1.3 1.0---- 0.0------------
1961-08-03 14.8 20.0 12.0--- 3.3 0.0---- 0.8------------
1961-08-02 18.3 26.0 9.3--- 3.7 0.7---- 0.0------------
1961-08-01 14.0 20.6 10.3--- 3.0 1.7---- 0.0------------
1961-07-31 12.0 12.8 9.9--- 8.0 0.3---- 36.2------------
1961-07-30 13.1 14.7 10.1--- 7.3 3.3---- 30.0------------
1961-07-29 13.8 18.0 11.5--- 6.7 1.3---- 0.3------------
1961-07-28 17.8 23.6 14.8--- 7.3 2.3---- 21.2------------
1961-07-27 19.3 26.0 13.8--- 3.0 0.7---- 0.5------------
1961-07-26 16.6 23.5 7.8--- 5.3 1.3---- 0.0------------
1961-07-25 13.5 15.8 10.9--- 6.0 1.3---- 0.0------------
1961-07-24 14.6 19.0 10.6--- 3.3 0.7---- 0.0------------
1961-07-23 15.4 19.6 11.5--- 5.0 3.0---- 0.0------------
1961-07-22 13.8 17.5 12.4--- 6.7 1.7---- 1.1------------
1961-07-21 15.0 19.3 10.5--- 6.7 4.7---- 0.0------------
1961-07-20 14.7 21.0 8.3--- 5.0 1.0---- 0.0------------
1961-07-19 15.1 19.6 10.5--- 3.3 1.0---- 1.2------------
1961-07-18 14.6 19.1 10.3--- 4.7 1.0---- 0.0------------
1961-07-17 14.1 19.5 10.0--- 5.3 1.0---- 2.4------------
1961-07-16 16.1 22.0 13.4--- 3.3 2.7---- 0.0------------
1961-07-15 18.7 24.0 13.5--- 2.3 1.7---- 23.2------------
1961-07-14 15.1 19.7 12.6--- 1.7 3.7---- 0.0------------
1961-07-13 20.2 28.2 15.2--- 5.0 5.3---- 19.6------------
1961-07-12 21.3 27.5 11.0--- 2.3 1.0---- 0.0------------
1961-07-11 16.5 22.0 5.9--- 4.0 2.3---- 0.0------------
1961-07-10 13.1 17.5 9.5--- 4.3 2.3---- 1.2------------
1961-07-09 13.6 18.0 10.0--- 5.7 1.0---- 1.6------------
1961-07-08 15.5 22.0 5.5--- 2.0 0.7---- 0.0------------
1961-07-07 13.3 17.2 9.3--- 2.7 1.7---- 0.0------------
1961-07-06 11.8 15.1 7.1--- 5.3 2.0---- 0.6------------
1961-07-05 13.9 17.2 11.6--- 4.0 1.0---- 0.0------------
1961-07-04 18.6 28.2 15.4--- 7.3 0.3---- 8.3------------
1961-07-03 23.3 31.4 12.4--- 2.0 0.3---- 0.0------------
1961-07-02 24.0 30.4 11.5--- 1.3 0.0---- 0.0------------
1961-07-01 20.2 28.2 10.9--- 0.0 0.3---- 0.0------------
1961-06-30 17.6 25.1 8.6--- 0.7 0.7---- 0.0------------
1961-06-29 15.1 21.2 7.4--- 2.0 0.7---- 0.0------------
1961-06-28 12.4 19.8 10.4--- 4.0 3.0---- 0.3------------
1961-06-27 22.8 30.7 16.9--- 4.3 1.3---- 19.0------------
1961-06-26 22.6 28.2 14.3--- 2.3 1.0---- 0.0------------
1961-06-25 21.2 29.8 12.6--- 1.0 1.7---- 0.0------------
1961-06-24 18.3 24.5 11.6--- 4.7 0.3---- 0.0------------
1961-06-23 17.8 23.1 15.1--- 3.0 3.3---- 0.0------------
1961-06-22 19.6 26.4 8.0--- 2.0 1.0---- 4.6------------
1961-06-21 17.8 24.3 5.6--- 4.3 7.0---- 0.0------------
1961-06-20 13.8 20.0 6.9--- 1.3 1.0---- 0.0------------
1961-06-19 15.0 22.0 12.4--- 5.3 1.0---- 0.0------------
1961-06-18 20.0 27.0 8.9--- 1.3 1.0---- 0.0------------
1961-06-17 15.1 22.6 6.1--- 1.3 0.7---- 0.0------------
1961-06-16 12.0 18.6 5.8--- 2.7 1.7---- 0.1------------
284.3 ms

 

Źródłem pochodzenia danych jest Instytut Meteorologii i Gospodarki Wodnej – Państwowy Instytut Badawczy. Dane Instytutu Meteorologii i Gospodarki Wodnej – Państwowego Instytutu Badawczego zostały przetworzone.

Dane źródłowe można odnaleźć na stronie https://dane.imgw.pl